sensor_id;sensor_type;location;lat;lon;timestamp;P1;durP1;ratioP1;P2;durP2;ratioP2
6860;SDS011;3469;47.060;15.460;2024-01-30T00:00:56;20.23;;;11.65;;
6860;SDS011;3469;47.060;15.460;2024-01-30T00:03:27;23.50;;;14.75;;
6860;SDS011;3469;47.060;15.460;2024-01-30T00:05:57;22.05;;;14.65;;
6860;SDS011;3469;47.060;15.460;2024-01-30T00:08:28;19.15;;;12.38;;
6860;SDS011;3469;47.060;15.460;2024-01-30T00:11:01;27.60;;;12.95;;
6860;SDS011;3469;47.060;15.460;2024-01-30T00:13:31;19.25;;;12.90;;
6860;SDS011;3469;47.060;15.460;2024-01-30T00:16:01;23.45;;;12.95;;
6860;SDS011;3469;47.060;15.460;2024-01-30T00:18:32;21.75;;;13.50;;
6860;SDS011;3469;47.060;15.460;2024-01-30T00:21:02;22.58;;;13.43;;
6860;SDS011;3469;47.060;15.460;2024-01-30T00:23:33;20.40;;;13.13;;
6860;SDS011;3469;47.060;15.460;2024-01-30T00:26:06;21.05;;;13.05;;
6860;SDS011;3469;47.060;15.460;2024-01-30T00:28:36;20.42;;;12.70;;
6860;SDS011;3469;47.060;15.460;2024-01-30T00:31:07;17.48;;;12.00;;
6860;SDS011;3469;47.060;15.460;2024-01-30T00:33:39;19.48;;;12.70;;
6860;SDS011;3469;47.060;15.460;2024-01-30T00:36:10;24.00;;;12.60;;
6860;SDS011;3469;47.060;15.460;2024-01-30T00:38:40;20.55;;;11.35;;
6860;SDS011;3469;47.060;15.460;2024-01-30T00:41:13;25.42;;;13.60;;
6860;SDS011;3469;47.060;15.460;2024-01-30T00:43:43;25.13;;;14.55;;
6860;SDS011;3469;47.060;15.460;2024-01-30T00:46:14;23.15;;;13.80;;
6860;SDS011;3469;47.060;15.460;2024-01-30T00:48:44;19.15;;;12.52;;
6860;SDS011;3469;47.060;15.460;2024-01-30T00:51:15;25.33;;;12.85;;
6860;SDS011;3469;47.060;15.460;2024-01-30T00:53:45;22.33;;;13.40;;
6860;SDS011;3469;47.060;15.460;2024-01-30T00:56:19;21.98;;;12.90;;
6860;SDS011;3469;47.060;15.460;2024-01-30T00:58:50;25.27;;;14.80;;
6860;SDS011;3469;47.060;15.460;2024-01-30T01:01:20;24.60;;;14.98;;
6860;SDS011;3469;47.060;15.460;2024-01-30T01:03:50;23.02;;;13.95;;
6860;SDS011;3469;47.060;15.460;2024-01-30T01:06:21;23.70;;;13.98;;
6860;SDS011;3469;47.060;15.460;2024-01-30T01:08:51;23.67;;;14.93;;
6860;SDS011;3469;47.060;15.460;2024-01-30T01:11:24;20.20;;;13.35;;
6860;SDS011;3469;47.060;15.460;2024-01-30T01:13:55;27.80;;;14.07;;
6860;SDS011;3469;47.060;15.460;2024-01-30T01:16:25;22.70;;;13.30;;
6860;SDS011;3469;47.060;15.460;2024-01-30T01:18:55;21.13;;;11.80;;
6860;SDS011;3469;47.060;15.460;2024-01-30T01:21:27;18.88;;;12.23;;
6860;SDS011;3469;47.060;15.460;2024-01-30T01:23:57;20.20;;;13.10;;
6860;SDS011;3469;47.060;15.460;2024-01-30T01:26:30;17.88;;;11.82;;
6860;SDS011;3469;47.060;15.460;2024-01-30T01:29:01;23.35;;;12.00;;
6860;SDS011;3469;47.060;15.460;2024-01-30T01:31:36;20.50;;;12.90;;
6860;SDS011;3469;47.060;15.460;2024-01-30T01:34:10;22.88;;;13.43;;
6860;SDS011;3469;47.060;15.460;2024-01-30T01:36:41;19.50;;;12.85;;
6860;SDS011;3469;47.060;15.460;2024-01-30T01:39:11;25.55;;;13.20;;
6860;SDS011;3469;47.060;15.460;2024-01-30T01:41:44;22.95;;;13.02;;
6860;SDS011;3469;47.060;15.460;2024-01-30T01:44:15;21.98;;;14.50;;
6860;SDS011;3469;47.060;15.460;2024-01-30T01:46:45;27.13;;;14.45;;
6860;SDS011;3469;47.060;15.460;2024-01-30T01:49:15;28.95;;;14.52;;
6860;SDS011;3469;47.060;15.460;2024-01-30T01:51:46;25.17;;;13.60;;
6860;SDS011;3469;47.060;15.460;2024-01-30T01:54:17;21.60;;;13.75;;
6860;SDS011;3469;47.060;15.460;2024-01-30T01:56:50;23.90;;;13.73;;
6860;SDS011;3469;47.060;15.460;2024-01-30T01:59:21;26.40;;;14.02;;
6860;SDS011;3469;47.060;15.460;2024-01-30T02:01:52;23.98;;;13.88;;
6860;SDS011;3469;47.060;15.460;2024-01-30T02:04:24;26.35;;;14.80;;
6860;SDS011;3469;47.060;15.460;2024-01-30T02:06:54;25.58;;;14.15;;
6860;SDS011;3469;47.060;15.460;2024-01-30T02:09:25;23.95;;;14.95;;
6860;SDS011;3469;47.060;15.460;2024-01-30T02:11:58;26.00;;;16.40;;
6860;SDS011;3469;47.060;15.460;2024-01-30T02:14:28;24.20;;;15.10;;
6860;SDS011;3469;47.060;15.460;2024-01-30T02:16:58;26.80;;;16.67;;
6860;SDS011;3469;47.060;15.460;2024-01-30T02:19:28;27.50;;;15.25;;
6860;SDS011;3469;47.060;15.460;2024-01-30T02:22:04;33.45;;;17.50;;
6860;SDS011;3469;47.060;15.460;2024-01-30T02:24:35;24.40;;;15.90;;
6860;SDS011;3469;47.060;15.460;2024-01-30T02:27:06;33.00;;;15.75;;
6860;SDS011;3469;47.060;15.460;2024-01-30T02:29:36;25.08;;;16.13;;
6860;SDS011;3469;47.060;15.460;2024-01-30T02:32:06;28.23;;;15.57;;
6860;SDS011;3469;47.060;15.460;2024-01-30T02:34:37;28.50;;;16.75;;
6860;SDS011;3469;47.060;15.460;2024-01-30T02:37:10;28.27;;;16.13;;
6860;SDS011;3469;47.060;15.460;2024-01-30T02:39:40;28.13;;;16.90;;
6860;SDS011;3469;47.060;15.460;2024-01-30T02:42:10;27.25;;;16.17;;
6860;SDS011;3469;47.060;15.460;2024-01-30T02:44:41;29.50;;;15.85;;
6860;SDS011;3469;47.060;15.460;2024-01-30T02:47:11;26.02;;;14.63;;
6860;SDS011;3469;47.060;15.460;2024-01-30T02:49:42;27.05;;;15.65;;
6860;SDS011;3469;47.060;15.460;2024-01-30T02:52:15;29.50;;;16.13;;
6860;SDS011;3469;47.060;15.460;2024-01-30T02:54:46;24.50;;;14.57;;
6860;SDS011;3469;47.060;15.460;2024-01-30T02:57:16;22.15;;;14.57;;
6860;SDS011;3469;47.060;15.460;2024-01-30T02:59:47;28.90;;;16.95;;
6860;SDS011;3469;47.060;15.460;2024-01-30T03:02:17;23.60;;;14.80;;
6860;SDS011;3469;47.060;15.460;2024-01-30T03:04:47;23.13;;;14.43;;
6860;SDS011;3469;47.060;15.460;2024-01-30T03:07:20;22.13;;;15.13;;
6860;SDS011;3469;47.060;15.460;2024-01-30T03:09:50;31.23;;;15.93;;
6860;SDS011;3469;47.060;15.460;2024-01-30T03:12:22;22.90;;;14.60;;
6860;SDS011;3469;47.060;15.460;2024-01-30T03:14:52;30.15;;;16.27;;
6860;SDS011;3469;47.060;15.460;2024-01-30T03:17:23;25.17;;;14.93;;
6860;SDS011;3469;47.060;15.460;2024-01-30T03:19:53;24.45;;;16.05;;
6860;SDS011;3469;47.060;15.460;2024-01-30T03:22:26;29.95;;;16.65;;
6860;SDS011;3469;47.060;15.460;2024-01-30T03:24:56;24.23;;;15.93;;
6860;SDS011;3469;47.060;15.460;2024-01-30T03:27:27;29.85;;;15.75;;
6860;SDS011;3469;47.060;15.460;2024-01-30T03:29:57;24.30;;;15.15;;
6860;SDS011;3469;47.060;15.460;2024-01-30T03:32:27;24.02;;;15.15;;
6860;SDS011;3469;47.060;15.460;2024-01-30T03:34:58;26.75;;;15.05;;
6860;SDS011;3469;47.060;15.460;2024-01-30T03:37:31;26.52;;;15.45;;
6860;SDS011;3469;47.060;15.460;2024-01-30T03:40:01;32.67;;;16.25;;
6860;SDS011;3469;47.060;15.460;2024-01-30T03:42:32;30.60;;;16.27;;
6860;SDS011;3469;47.060;15.460;2024-01-30T03:45:03;18.88;;;13.05;;
6860;SDS011;3469;47.060;15.460;2024-01-30T03:47:34;23.73;;;13.98;;
6860;SDS011;3469;47.060;15.460;2024-01-30T03:50:05;21.80;;;12.65;;
6860;SDS011;3469;47.060;15.460;2024-01-30T03:52:38;26.25;;;14.85;;
6860;SDS011;3469;47.060;15.460;2024-01-30T03:55:08;21.45;;;14.70;;
6860;SDS011;3469;47.060;15.460;2024-01-30T03:57:39;22.40;;;13.52;;
6860;SDS011;3469;47.060;15.460;2024-01-30T04:00:10;23.00;;;15.02;;
6860;SDS011;3469;47.060;15.460;2024-01-30T04:02:41;21.73;;;14.43;;
6860;SDS011;3469;47.060;15.460;2024-01-30T04:05:11;27.55;;;15.77;;
6860;SDS011;3469;47.060;15.460;2024-01-30T04:07:44;24.63;;;14.55;;
6860;SDS011;3469;47.060;15.460;2024-01-30T04:10:15;20.40;;;12.93;;
6860;SDS011;3469;47.060;15.460;2024-01-30T04:12:45;25.58;;;13.38;;
6860;SDS011;3469;47.060;15.460;2024-01-30T04:15:16;22.60;;;13.57;;
6860;SDS011;3469;47.060;15.460;2024-01-30T04:17:46;23.77;;;13.32;;
6860;SDS011;3469;47.060;15.460;2024-01-30T04:20:16;20.85;;;12.68;;
6860;SDS011;3469;47.060;15.460;2024-01-30T04:22:49;30.70;;;15.05;;
6860;SDS011;3469;47.060;15.460;2024-01-30T04:25:19;27.17;;;13.90;;
6860;SDS011;3469;47.060;15.460;2024-01-30T04:27:50;34.95;;;14.65;;
6860;SDS011;3469;47.060;15.460;2024-01-30T04:30:20;30.48;;;15.27;;
6860;SDS011;3469;47.060;15.460;2024-01-30T04:32:51;20.02;;;12.68;;
6860;SDS011;3469;47.060;15.460;2024-01-30T04:35:21;27.60;;;13.73;;
6860;SDS011;3469;47.060;15.460;2024-01-30T04:37:54;25.30;;;13.25;;
6860;SDS011;3469;47.060;15.460;2024-01-30T04:40:25;20.10;;;12.85;;
6860;SDS011;3469;47.060;15.460;2024-01-30T04:42:55;27.50;;;15.38;;
6860;SDS011;3469;47.060;15.460;2024-01-30T04:45:26;23.75;;;14.07;;
6860;SDS011;3469;47.060;15.460;2024-01-30T04:47:56;22.63;;;12.68;;
6860;SDS011;3469;47.060;15.460;2024-01-30T04:50:26;25.27;;;14.18;;
6860;SDS011;3469;47.060;15.460;2024-01-30T04:52:59;23.00;;;13.02;;
6860;SDS011;3469;47.060;15.460;2024-01-30T04:55:29;24.15;;;13.60;;
6860;SDS011;3469;47.060;15.460;2024-01-30T04:58:00;24.50;;;15.43;;
6860;SDS011;3469;47.060;15.460;2024-01-30T05:00:30;22.98;;;14.55;;
6860;SDS011;3469;47.060;15.460;2024-01-30T05:03:00;30.05;;;15.07;;
6860;SDS011;3469;47.060;15.460;2024-01-30T05:05:31;26.35;;;14.43;;
6860;SDS011;3469;47.060;15.460;2024-01-30T05:08:04;19.48;;;12.82;;
6860;SDS011;3469;47.060;15.460;2024-01-30T05:10:34;25.08;;;13.88;;
6860;SDS011;3469;47.060;15.460;2024-01-30T05:13:05;26.92;;;13.95;;
6860;SDS011;3469;47.060;15.460;2024-01-30T05:15:35;30.02;;;15.38;;
6860;SDS011;3469;47.060;15.460;2024-01-30T05:18:05;22.88;;;13.68;;
6860;SDS011;3469;47.060;15.460;2024-01-30T05:20:36;22.27;;;13.20;;
6860;SDS011;3469;47.060;15.460;2024-01-30T05:23:09;28.48;;;14.20;;
6860;SDS011;3469;47.060;15.460;2024-01-30T05:25:39;23.58;;;13.48;;
6860;SDS011;3469;47.060;15.460;2024-01-30T05:28:09;29.63;;;15.15;;
6860;SDS011;3469;47.060;15.460;2024-01-30T05:30:40;23.85;;;14.05;;
6860;SDS011;3469;47.060;15.460;2024-01-30T05:33:11;24.30;;;14.77;;
6860;SDS011;3469;47.060;15.460;2024-01-30T05:35:41;27.35;;;15.35;;
6860;SDS011;3469;47.060;15.460;2024-01-30T05:38:15;26.58;;;14.60;;
6860;SDS011;3469;47.060;15.460;2024-01-30T05:40:46;24.25;;;14.00;;
6860;SDS011;3469;47.060;15.460;2024-01-30T05:43:16;25.13;;;13.88;;
6860;SDS011;3469;47.060;15.460;2024-01-30T05:45:46;33.67;;;16.25;;
6860;SDS011;3469;47.060;15.460;2024-01-30T05:48:17;32.78;;;15.40;;
6860;SDS011;3469;47.060;15.460;2024-01-30T05:50:47;20.52;;;13.35;;
6860;SDS011;3469;47.060;15.460;2024-01-30T05:53:20;28.92;;;14.18;;
6860;SDS011;3469;47.060;15.460;2024-01-30T05:55:50;21.83;;;12.80;;
6860;SDS011;3469;47.060;15.460;2024-01-30T05:58:21;35.60;;;14.73;;
6860;SDS011;3469;47.060;15.460;2024-01-30T06:00:51;25.88;;;15.27;;
6860;SDS011;3469;47.060;15.460;2024-01-30T06:03:21;27.95;;;15.30;;
6860;SDS011;3469;47.060;15.460;2024-01-30T06:05:52;23.75;;;15.25;;
6860;SDS011;3469;47.060;15.460;2024-01-30T06:08:25;24.13;;;14.85;;
6860;SDS011;3469;47.060;15.460;2024-01-30T06:10:55;29.23;;;16.83;;
6860;SDS011;3469;47.060;15.460;2024-01-30T06:13:25;24.77;;;15.77;;
6860;SDS011;3469;47.060;15.460;2024-01-30T06:15:58;22.48;;;13.90;;
6860;SDS011;3469;47.060;15.460;2024-01-30T06:18:29;32.45;;;16.80;;
6860;SDS011;3469;47.060;15.460;2024-01-30T06:20:59;20.63;;;15.43;;
6860;SDS011;3469;47.060;15.460;2024-01-30T06:23:32;22.90;;;15.27;;
6860;SDS011;3469;47.060;15.460;2024-01-30T06:26:02;32.67;;;17.13;;
6860;SDS011;3469;47.060;15.460;2024-01-30T06:28:33;24.75;;;15.85;;
6860;SDS011;3469;47.060;15.460;2024-01-30T06:31:03;32.72;;;16.35;;
6860;SDS011;3469;47.060;15.460;2024-01-30T06:33:34;33.53;;;16.95;;
6860;SDS011;3469;47.060;15.460;2024-01-30T06:36:04;30.83;;;17.85;;
6860;SDS011;3469;47.060;15.460;2024-01-30T06:38:38;30.55;;;16.20;;
6860;SDS011;3469;47.060;15.460;2024-01-30T06:41:08;29.80;;;16.77;;
6860;SDS011;3469;47.060;15.460;2024-01-30T06:43:38;35.53;;;17.23;;
6860;SDS011;3469;47.060;15.460;2024-01-30T06:46:09;34.45;;;17.27;;
6860;SDS011;3469;47.060;15.460;2024-01-30T06:48:40;32.10;;;18.55;;
6860;SDS011;3469;47.060;15.460;2024-01-30T06:51:11;27.52;;;17.13;;
6860;SDS011;3469;47.060;15.460;2024-01-30T06:53:46;27.90;;;18.30;;
6860;SDS011;3469;47.060;15.460;2024-01-30T06:56:16;25.40;;;16.00;;
6860;SDS011;3469;47.060;15.460;2024-01-30T06:58:48;27.92;;;17.20;;
6860;SDS011;3469;47.060;15.460;2024-01-30T07:01:18;30.05;;;17.90;;
6860;SDS011;3469;47.060;15.460;2024-01-30T07:03:49;36.85;;;15.98;;
6860;SDS011;3469;47.060;15.460;2024-01-30T07:06:19;26.95;;;15.40;;
6860;SDS011;3469;47.060;15.460;2024-01-30T07:08:52;29.15;;;16.92;;
6860;SDS011;3469;47.060;15.460;2024-01-30T07:11:23;29.40;;;17.92;;
6860;SDS011;3469;47.060;15.460;2024-01-30T07:13:53;30.90;;;17.33;;
6860;SDS011;3469;47.060;15.460;2024-01-30T07:16:25;32.65;;;18.08;;
6860;SDS011;3469;47.060;15.460;2024-01-30T07:18:55;33.25;;;16.52;;
6860;SDS011;3469;47.060;15.460;2024-01-30T07:21:25;26.60;;;16.88;;
6860;SDS011;3469;47.060;15.460;2024-01-30T07:23:59;25.30;;;16.90;;
6860;SDS011;3469;47.060;15.460;2024-01-30T07:26:30;26.23;;;15.73;;
6860;SDS011;3469;47.060;15.460;2024-01-30T07:29:00;33.97;;;17.35;;
6860;SDS011;3469;47.060;15.460;2024-01-30T07:31:30;35.78;;;16.65;;
6860;SDS011;3469;47.060;15.460;2024-01-30T07:34:01;28.88;;;16.75;;
6860;SDS011;3469;47.060;15.460;2024-01-30T07:36:32;27.77;;;16.40;;
6860;SDS011;3469;47.060;15.460;2024-01-30T07:39:05;30.02;;;18.15;;
6860;SDS011;3469;47.060;15.460;2024-01-30T07:41:37;30.90;;;19.25;;
6860;SDS011;3469;47.060;15.460;2024-01-30T07:44:18;34.28;;;20.40;;
6860;SDS011;3469;47.060;15.460;2024-01-30T07:46:48;32.00;;;18.30;;
6860;SDS011;3469;47.060;15.460;2024-01-30T07:49:18;32.42;;;18.83;;
6860;SDS011;3469;47.060;15.460;2024-01-30T07:51:48;32.10;;;19.55;;
6860;SDS011;3469;47.060;15.460;2024-01-30T07:54:18;30.38;;;18.50;;
6860;SDS011;3469;47.060;15.460;2024-01-30T07:56:48;32.45;;;19.05;;
6860;SDS011;3469;47.060;15.460;2024-01-30T07:59:21;35.75;;;19.05;;
6860;SDS011;3469;47.060;15.460;2024-01-30T08:01:51;34.15;;;21.63;;
6860;SDS011;3469;47.060;15.460;2024-01-30T08:04:21;38.67;;;20.85;;
6860;SDS011;3469;47.060;15.460;2024-01-30T08:06:51;31.88;;;21.17;;
6860;SDS011;3469;47.060;15.460;2024-01-30T08:09:22;34.80;;;20.70;;
6860;SDS011;3469;47.060;15.460;2024-01-30T08:11:51;37.00;;;20.85;;
6860;SDS011;3469;47.060;15.460;2024-01-30T08:14:24;36.05;;;21.30;;
6860;SDS011;3469;47.060;15.460;2024-01-30T08:16:54;36.00;;;21.77;;
6860;SDS011;3469;47.060;15.460;2024-01-30T08:19:25;36.50;;;22.65;;
6860;SDS011;3469;47.060;15.460;2024-01-30T08:21:55;30.42;;;21.67;;
6860;SDS011;3469;47.060;15.460;2024-01-30T08:24:25;34.70;;;23.20;;
6860;SDS011;3469;47.060;15.460;2024-01-30T08:26:55;37.90;;;24.27;;
6860;SDS011;3469;47.060;15.460;2024-01-30T08:29:27;41.83;;;24.10;;
6860;SDS011;3469;47.060;15.460;2024-01-30T08:31:57;34.53;;;22.80;;
6860;SDS011;3469;47.060;15.460;2024-01-30T08:34:27;34.20;;;21.02;;
6860;SDS011;3469;47.060;15.460;2024-01-30T08:36:57;34.80;;;22.57;;
6860;SDS011;3469;47.060;15.460;2024-01-30T08:39:27;32.20;;;21.38;;
6860;SDS011;3469;47.060;15.460;2024-01-30T08:41:57;34.13;;;21.77;;
6860;SDS011;3469;47.060;15.460;2024-01-30T08:44:30;31.30;;;20.27;;
6860;SDS011;3469;47.060;15.460;2024-01-30T08:47:00;30.98;;;18.95;;
6860;SDS011;3469;47.060;15.460;2024-01-30T08:49:30;30.03;;;19.67;;
6860;SDS011;3469;47.060;15.460;2024-01-30T08:52:00;25.30;;;17.30;;
6860;SDS011;3469;47.060;15.460;2024-01-30T08:54:30;26.37;;;16.20;;
6860;SDS011;3469;47.060;15.460;2024-01-30T08:57:02;23.73;;;14.60;;
6860;SDS011;3469;47.060;15.460;2024-01-30T08:59:34;20.00;;;13.37;;
6860;SDS011;3469;47.060;15.460;2024-01-30T09:02:04;22.80;;;12.87;;
6860;SDS011;3469;47.060;15.460;2024-01-30T09:04:38;17.53;;;12.43;;
6860;SDS011;3469;47.060;15.460;2024-01-30T09:07:09;23.80;;;14.93;;
6860;SDS011;3469;47.060;15.460;2024-01-30T09:09:41;26.87;;;15.00;;
6860;SDS011;3469;47.060;15.460;2024-01-30T09:12:11;23.80;;;16.17;;
6860;SDS011;3469;47.060;15.460;2024-01-30T09:14:44;25.10;;;15.40;;
6860;SDS011;3469;47.060;15.460;2024-01-30T09:17:14;20.43;;;13.87;;
6860;SDS011;3469;47.060;15.460;2024-01-30T09:19:45;26.77;;;15.90;;
6860;SDS011;3469;47.060;15.460;2024-01-30T09:22:15;19.73;;;13.47;;
6860;SDS011;3469;47.060;15.460;2024-01-30T09:24:45;19.10;;;14.07;;
6860;SDS011;3469;47.060;15.460;2024-01-30T09:27:15;18.70;;;12.80;;
6860;SDS011;3469;47.060;15.460;2024-01-30T09:29:48;22.73;;;14.87;;
6860;SDS011;3469;47.060;15.460;2024-01-30T09:32:17;22.77;;;15.70;;
6860;SDS011;3469;47.060;15.460;2024-01-30T09:34:47;21.07;;;14.33;;
6860;SDS011;3469;47.060;15.460;2024-01-30T09:37:17;19.70;;;13.03;;
6860;SDS011;3469;47.060;15.460;2024-01-30T09:39:52;21.03;;;14.10;;
6860;SDS011;3469;47.060;15.460;2024-01-30T09:42:25;18.73;;;13.07;;
6860;SDS011;3469;47.060;15.460;2024-01-30T09:44:59;23.90;;;16.70;;
6860;SDS011;3469;47.060;15.460;2024-01-30T09:47:30;32.97;;;14.73;;
6860;SDS011;3469;47.060;15.460;2024-01-30T09:50:01;23.90;;;15.20;;
6860;SDS011;3469;47.060;15.460;2024-01-30T09:52:33;29.53;;;16.53;;
6860;SDS011;3469;47.060;15.460;2024-01-30T09:55:03;22.63;;;14.60;;
6860;SDS011;3469;47.060;15.460;2024-01-30T09:57:34;22.03;;;16.50;;
6860;SDS011;3469;47.060;15.460;2024-01-30T10:00:07;23.23;;;16.03;;
6860;SDS011;3469;47.060;15.460;2024-01-30T10:02:40;24.80;;;15.07;;
6860;SDS011;3469;47.060;15.460;2024-01-30T10:05:10;19.80;;;15.10;;
6860;SDS011;3469;47.060;15.460;2024-01-30T10:07:49;20.70;;;14.77;;
6860;SDS011;3469;47.060;15.460;2024-01-30T10:10:21;24.13;;;14.87;;
6860;SDS011;3469;47.060;15.460;2024-01-30T10:12:51;18.67;;;14.60;;
6860;SDS011;3469;47.060;15.460;2024-01-30T10:15:23;24.23;;;14.90;;
6860;SDS011;3469;47.060;15.460;2024-01-30T10:17:53;24.23;;;14.77;;
6860;SDS011;3469;47.060;15.460;2024-01-30T10:20:24;23.23;;;14.07;;
6860;SDS011;3469;47.060;15.460;2024-01-30T10:22:55;20.93;;;14.60;;
6860;SDS011;3469;47.060;15.460;2024-01-30T10:25:25;23.67;;;14.57;;
6860;SDS011;3469;47.060;15.460;2024-01-30T10:27:55;27.97;;;14.80;;
6860;SDS011;3469;47.060;15.460;2024-01-30T10:30:28;19.33;;;13.07;;
6860;SDS011;3469;47.060;15.460;2024-01-30T10:32:58;23.73;;;14.50;;
6860;SDS011;3469;47.060;15.460;2024-01-30T10:35:30;26.67;;;14.33;;
6860;SDS011;3469;47.060;15.460;2024-01-30T10:38:01;56.47;;;14.80;;
6860;SDS011;3469;47.060;15.460;2024-01-30T10:40:31;28.97;;;14.63;;
6860;SDS011;3469;47.060;15.460;2024-01-30T10:43:02;20.10;;;12.67;;
6860;SDS011;3469;47.060;15.460;2024-01-30T10:45:37;19.23;;;12.33;;
6860;SDS011;3469;47.060;15.460;2024-01-30T10:48:08;19.90;;;13.10;;
6860;SDS011;3469;47.060;15.460;2024-01-30T10:50:39;18.43;;;12.03;;
6860;SDS011;3469;47.060;15.460;2024-01-30T10:53:22;25.03;;;13.40;;
6860;SDS011;3469;47.060;15.460;2024-01-30T10:55:56;22.47;;;13.90;;
6860;SDS011;3469;47.060;15.460;2024-01-30T10:58:28;18.47;;;12.50;;
6860;SDS011;3469;47.060;15.460;2024-01-30T11:01:00;16.00;;;12.00;;
6860;SDS011;3469;47.060;15.460;2024-01-30T11:03:31;15.40;;;11.00;;
6860;SDS011;3469;47.060;15.460;2024-01-30T11:06:03;21.50;;;13.07;;
6860;SDS011;3469;47.060;15.460;2024-01-30T11:08:33;20.30;;;12.33;;
6860;SDS011;3469;47.060;15.460;2024-01-30T11:11:07;17.43;;;12.87;;
6860;SDS011;3469;47.060;15.460;2024-01-30T11:13:42;15.97;;;12.77;;
6860;SDS011;3469;47.060;15.460;2024-01-30T11:16:14;20.00;;;12.80;;
6860;SDS011;3469;47.060;15.460;2024-01-30T11:18:49;20.87;;;13.33;;
6860;SDS011;3469;47.060;15.460;2024-01-30T11:21:19;21.93;;;12.37;;
6860;SDS011;3469;47.060;15.460;2024-01-30T11:23:49;17.67;;;12.17;;
6860;SDS011;3469;47.060;15.460;2024-01-30T11:26:23;17.00;;;12.00;;
6860;SDS011;3469;47.060;15.460;2024-01-30T11:28:53;18.80;;;12.50;;
6860;SDS011;3469;47.060;15.460;2024-01-30T11:31:28;21.90;;;12.73;;
6860;SDS011;3469;47.060;15.460;2024-01-30T11:33:59;20.30;;;12.83;;
6860;SDS011;3469;47.060;15.460;2024-01-30T11:36:30;14.57;;;11.73;;
6860;SDS011;3469;47.060;15.460;2024-01-30T11:39:01;15.93;;;11.30;;
6860;SDS011;3469;47.060;15.460;2024-01-30T11:41:32;22.23;;;11.40;;
6860;SDS011;3469;47.060;15.460;2024-01-30T11:44:03;15.30;;;10.70;;
6860;SDS011;3469;47.060;15.460;2024-01-30T11:46:36;18.10;;;11.13;;
6860;SDS011;3469;47.060;15.460;2024-01-30T11:49:06;18.10;;;12.07;;
6860;SDS011;3469;47.060;15.460;2024-01-30T11:51:36;17.30;;;11.17;;
6860;SDS011;3469;47.060;15.460;2024-01-30T11:54:07;18.23;;;11.00;;
6860;SDS011;3469;47.060;15.460;2024-01-30T11:56:37;14.27;;;11.13;;
6860;SDS011;3469;47.060;15.460;2024-01-30T11:59:08;35.53;;;12.20;;
6860;SDS011;3469;47.060;15.460;2024-01-30T12:01:40;13.63;;;10.83;;
6860;SDS011;3469;47.060;15.460;2024-01-30T12:04:12;15.50;;;10.53;;
6860;SDS011;3469;47.060;15.460;2024-01-30T12:06:42;12.40;;;9.50;;
6860;SDS011;3469;47.060;15.460;2024-01-30T12:09:12;16.13;;;10.90;;
6860;SDS011;3469;47.060;15.460;2024-01-30T12:11:44;14.07;;;10.60;;
6860;SDS011;3469;47.060;15.460;2024-01-30T12:14:14;13.73;;;10.17;;
6860;SDS011;3469;47.060;15.460;2024-01-30T12:16:50;10.83;;;9.13;;
6860;SDS011;3469;47.060;15.460;2024-01-30T12:19:23;12.77;;;9.80;;
6860;SDS011;3469;47.060;15.460;2024-01-30T12:21:54;15.40;;;11.40;;
6860;SDS011;3469;47.060;15.460;2024-01-30T12:24:26;15.87;;;10.80;;
6860;SDS011;3469;47.060;15.460;2024-01-30T12:26:57;13.70;;;10.10;;
6860;SDS011;3469;47.060;15.460;2024-01-30T12:29:31;18.07;;;10.97;;
6860;SDS011;3469;47.060;15.460;2024-01-30T12:32:08;12.63;;;9.80;;
6860;SDS011;3469;47.060;15.460;2024-01-30T12:34:40;14.10;;;9.17;;
6860;SDS011;3469;47.060;15.460;2024-01-30T12:37:26;13.97;;;9.80;;
6860;SDS011;3469;47.060;15.460;2024-01-30T12:39:56;14.90;;;9.37;;
6860;SDS011;3469;47.060;15.460;2024-01-30T12:42:26;11.97;;;9.17;;
6860;SDS011;3469;47.060;15.460;2024-01-30T12:44:57;16.30;;;10.63;;
6860;SDS011;3469;47.060;15.460;2024-01-30T12:47:30;16.40;;;10.43;;
6860;SDS011;3469;47.060;15.460;2024-01-30T12:50:00;12.13;;;9.70;;
6860;SDS011;3469;47.060;15.460;2024-01-30T12:52:31;14.27;;;9.77;;
6860;SDS011;3469;47.060;15.460;2024-01-30T12:55:01;11.00;;;9.10;;
6860;SDS011;3469;47.060;15.460;2024-01-30T12:57:31;10.87;;;8.83;;
6860;SDS011;3469;47.060;15.460;2024-01-30T13:00:02;14.57;;;9.97;;
6860;SDS011;3469;47.060;15.460;2024-01-30T13:02:37;16.43;;;8.73;;
6860;SDS011;3469;47.060;15.460;2024-01-30T13:05:09;16.23;;;10.00;;
6860;SDS011;3469;47.060;15.460;2024-01-30T13:07:40;14.00;;;9.37;;
6860;SDS011;3469;47.060;15.460;2024-01-30T13:10:10;13.73;;;10.87;;
6860;SDS011;3469;47.060;15.460;2024-01-30T13:12:40;16.90;;;10.83;;
6860;SDS011;3469;47.060;15.460;2024-01-30T13:15:10;15.00;;;9.23;;
6860;SDS011;3469;47.060;15.460;2024-01-30T13:17:43;14.23;;;9.17;;
6860;SDS011;3469;47.060;15.460;2024-01-30T13:20:14;15.70;;;9.77;;
6860;SDS011;3469;47.060;15.460;2024-01-30T13:22:47;14.97;;;9.90;;
6860;SDS011;3469;47.060;15.460;2024-01-30T13:25:17;13.70;;;9.80;;
6860;SDS011;3469;47.060;15.460;2024-01-30T13:27:47;18.17;;;11.40;;
6860;SDS011;3469;47.060;15.460;2024-01-30T13:30:17;12.33;;;10.20;;
6860;SDS011;3469;47.060;15.460;2024-01-30T13:32:50;12.30;;;9.70;;
6860;SDS011;3469;47.060;15.460;2024-01-30T13:35:21;14.77;;;9.10;;
6860;SDS011;3469;47.060;15.460;2024-01-30T13:37:51;17.03;;;11.10;;
6860;SDS011;3469;47.060;15.460;2024-01-30T13:40:21;17.13;;;10.87;;
6860;SDS011;3469;47.060;15.460;2024-01-30T13:42:51;15.07;;;10.00;;
6860;SDS011;3469;47.060;15.460;2024-01-30T13:45:21;15.17;;;10.60;;
6860;SDS011;3469;47.060;15.460;2024-01-30T13:47:54;15.27;;;10.40;;
6860;SDS011;3469;47.060;15.460;2024-01-30T13:50:24;14.30;;;9.33;;
6860;SDS011;3469;47.060;15.460;2024-01-30T13:52:54;14.43;;;10.37;;
6860;SDS011;3469;47.060;15.460;2024-01-30T13:55:27;11.83;;;10.43;;
6860;SDS011;3469;47.060;15.460;2024-01-30T13:57:57;16.50;;;10.77;;
6860;SDS011;3469;47.060;15.460;2024-01-30T14:00:28;14.27;;;10.20;;
6860;SDS011;3469;47.060;15.460;2024-01-30T14:03:01;12.67;;;10.03;;
6860;SDS011;3469;47.060;15.460;2024-01-30T14:05:31;17.50;;;10.30;;
6860;SDS011;3469;47.060;15.460;2024-01-30T14:08:02;12.00;;;10.40;;
6860;SDS011;3469;47.060;15.460;2024-01-30T14:10:32;17.57;;;10.97;;
6860;SDS011;3469;47.060;15.460;2024-01-30T14:13:02;19.33;;;11.97;;
6860;SDS011;3469;47.060;15.460;2024-01-30T14:15:32;20.30;;;10.30;;
6860;SDS011;3469;47.060;15.460;2024-01-30T14:18:05;17.63;;;11.20;;
6860;SDS011;3469;47.060;15.460;2024-01-30T14:20:36;16.23;;;11.60;;
6860;SDS011;3469;47.060;15.460;2024-01-30T14:23:06;13.73;;;11.80;;
6860;SDS011;3469;47.060;15.460;2024-01-30T14:25:36;14.77;;;10.80;;
6860;SDS011;3469;47.060;15.460;2024-01-30T14:28:06;14.27;;;10.40;;
6860;SDS011;3469;47.060;15.460;2024-01-30T14:30:36;14.80;;;11.20;;
6860;SDS011;3469;47.060;15.460;2024-01-30T14:33:08;14.97;;;11.00;;
6860;SDS011;3469;47.060;15.460;2024-01-30T14:35:39;18.50;;;11.23;;
6860;SDS011;3469;47.060;15.460;2024-01-30T14:38:08;16.40;;;10.97;;
6860;SDS011;3469;47.060;15.460;2024-01-30T14:40:38;12.63;;;11.33;;
6860;SDS011;3469;47.060;15.460;2024-01-30T14:43:09;15.20;;;10.57;;
6860;SDS011;3469;47.060;15.460;2024-01-30T14:45:38;13.40;;;9.70;;
6860;SDS011;3469;47.060;15.460;2024-01-30T14:48:12;13.30;;;10.33;;
6860;SDS011;3469;47.060;15.460;2024-01-30T14:50:42;12.77;;;10.43;;
6860;SDS011;3469;47.060;15.460;2024-01-30T14:53:12;15.80;;;9.87;;
6860;SDS011;3469;47.060;15.460;2024-01-30T14:55:42;14.80;;;10.50;;
6860;SDS011;3469;47.060;15.460;2024-01-30T14:58:12;15.37;;;10.50;;